createdAt,value
2023-04-29T00:02:00.175Z,9.65
2023-04-29T00:04:28.092Z,9.79
2023-04-29T00:06:55.835Z,9.82
2023-04-29T00:09:23.329Z,9.84
2023-04-29T00:11:51.738Z,9.90
2023-04-29T00:14:19.342Z,9.92
2023-04-29T00:16:47.085Z,9.97
2023-04-29T00:19:15.113Z,9.71
2023-04-29T00:21:42.679Z,9.64
2023-04-29T00:24:10.128Z,9.62
2023-04-29T00:26:37.665Z,9.72
2023-04-29T00:29:05.138Z,9.49
2023-04-29T00:31:33.107Z,9.33
2023-04-29T00:34:00.746Z,9.23
2023-04-29T00:36:28.488Z,9.24
2023-04-29T00:38:56.157Z,9.03
2023-04-29T00:41:24.750Z,9.03
2023-04-29T00:43:52.846Z,9.00
2023-04-29T00:46:20.345Z,9.09
2023-04-29T00:48:47.946Z,9.00
2023-04-29T00:51:15.929Z,8.97
2023-04-29T00:53:44.037Z,9.02
2023-04-29T00:56:11.837Z,9.40
2023-04-29T00:58:39.711Z,9.17
2023-04-29T01:01:07.418Z,8.91
2023-04-29T01:03:35.419Z,9.00
2023-04-29T01:06:44.004Z,8.81
2023-04-29T01:09:14.416Z,8.58
2023-04-29T01:12:01.893Z,8.54
2023-04-29T01:14:30.058Z,8.53
2023-04-29T01:17:07.145Z,8.47
2023-04-29T01:19:51.918Z,8.47
2023-04-29T01:22:22.001Z,8.32
2023-04-29T01:24:50.354Z,8.36
2023-04-29T01:28:14.290Z,8.31
2023-04-29T01:31:07.685Z,8.31
2023-04-29T01:34:08.263Z,8.23
2023-04-29T01:37:07.586Z,8.08
2023-04-29T01:39:46.716Z,8.13
2023-04-29T01:42:49.276Z,8.23
2023-04-29T01:45:21.668Z,8.38
2023-04-29T01:47:53.271Z,8.18
2023-04-29T01:50:23.555Z,8.07
2023-04-29T01:52:51.119Z,8.05
2023-04-29T01:55:18.771Z,8.08
2023-04-29T01:57:57.209Z,8.08
2023-04-29T02:00:45.081Z,8.02
2023-04-29T02:03:12.939Z,8.06
2023-04-29T02:05:43.903Z,7.98
2023-04-29T02:08:11.390Z,7.94
2023-04-29T02:10:42.817Z,8.03
2023-04-29T02:13:20.987Z,7.99
2023-04-29T02:15:48.749Z,8.00
2023-04-29T02:18:17.286Z,7.84
2023-04-29T02:20:45.305Z,7.96
2023-04-29T02:23:12.724Z,7.85
2023-04-29T02:25:40.194Z,7.80
2023-04-29T02:28:07.686Z,7.89
2023-04-29T02:30:35.231Z,7.93
2023-04-29T02:33:02.885Z,7.96
2023-04-29T02:35:30.390Z,7.86
2023-04-29T02:37:57.896Z,7.84
2023-04-29T02:40:26.651Z,7.81
2023-04-29T02:42:54.139Z,7.97
2023-04-29T02:45:22.585Z,7.88
2023-04-29T02:47:50.069Z,7.94
2023-04-29T02:50:17.848Z,8.03
2023-04-29T02:52:46.054Z,7.87
2023-04-29T02:55:13.698Z,7.57
2023-04-29T02:57:41.365Z,7.59
2023-04-29T03:00:10.143Z,7.63
2023-04-29T03:02:37.949Z,7.41
2023-04-29T03:05:06.969Z,7.44
2023-04-29T03:07:34.603Z,7.27
2023-04-29T03:10:02.124Z,7.18
2023-04-29T03:12:32.591Z,7.18
2023-04-29T03:15:02.344Z,7.00
2023-04-29T03:17:30.078Z,6.98
2023-04-29T03:19:57.576Z,6.95
2023-04-29T03:22:25.106Z,6.79
2023-04-29T03:24:52.875Z,6.77
2023-04-29T03:27:21.347Z,7.01
2023-04-29T03:29:49.562Z,7.04
2023-04-29T03:32:17.384Z,7.02
2023-04-29T03:34:45.864Z,7.24
2023-04-29T03:37:33.765Z,7.16
2023-04-29T03:40:15.242Z,7.27
2023-04-29T03:42:43.210Z,7.34
2023-04-29T03:45:14.371Z,7.31
2023-04-29T03:47:42.601Z,7.37
2023-04-29T03:50:11.988Z,7.37
2023-04-29T03:52:40.669Z,7.52
2023-04-29T03:55:12.811Z,7.60
2023-04-29T03:57:42.653Z,7.64
2023-04-29T04:00:12.046Z,7.75
2023-04-29T04:02:48.543Z,7.94
2023-04-29T04:05:16.646Z,8.06
2023-04-29T04:07:49.708Z,8.20
2023-04-29T04:10:47.297Z,8.29
2023-04-29T04:13:35.321Z,8.20
2023-04-29T04:16:03.695Z,8.23
2023-04-29T04:18:31.915Z,8.31
2023-04-29T04:21:05.058Z,8.33
2023-04-29T04:23:41.764Z,8.35
2023-04-29T04:26:11.675Z,8.38
2023-04-29T04:28:57.833Z,8.41
2023-04-29T04:31:41.352Z,8.40
2023-04-29T04:34:09.686Z,8.49
2023-04-29T04:36:37.465Z,8.55
2023-04-29T04:39:05.714Z,8.67
2023-04-29T04:41:33.499Z,8.77
2023-04-29T04:44:02.230Z,8.93
2023-04-29T04:46:43.369Z,9.18
2023-04-29T04:49:29.549Z,9.39
2023-04-29T04:51:57.133Z,9.58
2023-04-29T04:54:25.191Z,9.67
2023-04-29T04:57:06.036Z,9.84
2023-04-29T04:59:36.566Z,10.16
2023-04-29T05:02:04.161Z,10.84
2023-04-29T05:04:32.107Z,10.77
2023-04-29T05:06:59.668Z,10.43
2023-04-29T05:09:32.819Z,10.42
2023-04-29T05:12:01.394Z,10.34
2023-04-29T05:14:31.844Z,10.10
2023-04-29T05:17:01.110Z,10.26
2023-04-29T05:19:29.097Z,10.05
2023-04-29T05:21:56.908Z,10.32
2023-04-29T05:24:24.447Z,10.26
2023-04-29T05:26:52.520Z,10.14
2023-04-29T05:29:20.215Z,10.25
2023-04-29T05:31:56.023Z,10.25
2023-04-29T05:34:24.508Z,10.43
2023-04-29T05:36:53.015Z,10.66
2023-04-29T05:39:23.978Z,10.61
2023-04-29T05:42:03.346Z,10.66
2023-04-29T05:44:44.716Z,10.69
2023-04-29T05:47:12.212Z,10.68
2023-04-29T05:49:43.236Z,11.14
2023-04-29T05:52:10.806Z,11.34
2023-04-29T05:54:44.440Z,11.08
2023-04-29T05:57:12.779Z,11.26
2023-04-29T05:59:41.710Z,11.38
2023-04-29T06:02:11.003Z,11.18
2023-04-29T06:04:41.909Z,11.45
2023-04-29T06:07:28.756Z,11.48
2023-04-29T06:10:11.426Z,11.64
2023-04-29T06:12:42.200Z,11.64
2023-04-29T06:15:10.225Z,11.79
2023-04-29T06:17:37.975Z,12.15
2023-04-29T06:20:06.596Z,12.57
2023-04-29T06:22:34.089Z,12.48
2023-04-29T06:25:01.591Z,12.75
2023-04-29T06:27:56.972Z,12.71
2023-04-29T06:30:27.980Z,13.18
2023-04-29T06:32:55.889Z,13.00
2023-04-29T06:35:23.385Z,12.83
2023-04-29T06:38:02.347Z,12.89
2023-04-29T06:40:29.953Z,13.16
2023-04-29T06:43:23.626Z,13.02
2023-04-29T06:46:13.227Z,13.39
2023-04-29T06:49:01.649Z,13.43
2023-04-29T06:51:29.470Z,13.25
2023-04-29T06:53:58.923Z,13.37
2023-04-29T06:56:26.437Z,13.69
2023-04-29T06:58:53.932Z,13.90
2023-04-29T07:01:22.740Z,13.76
2023-04-29T07:03:51.933Z,14.42
2023-04-29T07:06:20.055Z,14.24
2023-04-29T07:08:47.917Z,14.00
2023-04-29T07:11:17.560Z,14.11
2023-04-29T07:13:47.976Z,13.99
2023-04-29T07:16:20.956Z,14.01
2023-04-29T07:18:49.579Z,14.30
2023-04-29T07:21:17.772Z,14.31
2023-04-29T07:23:45.218Z,14.57
2023-04-29T07:26:17.598Z,14.85
2023-04-29T07:28:46.744Z,15.42
2023-04-29T07:31:14.548Z,15.64
2023-04-29T07:33:43.216Z,15.64
2023-04-29T07:36:13.033Z,15.53
2023-04-29T07:38:41.944Z,15.66
2023-04-29T07:41:09.392Z,15.92
2023-04-29T07:43:37.010Z,15.86
2023-04-29T07:46:06.149Z,16.01
2023-04-29T07:48:39.399Z,16.26
2023-04-29T07:51:08.821Z,16.72
2023-04-29T07:53:36.384Z,17.04
2023-04-29T07:56:08.676Z,17.26
2023-04-29T07:58:36.503Z,16.96
2023-04-29T08:01:12.232Z,17.04
2023-04-29T08:03:42.097Z,17.24
2023-04-29T08:06:11.431Z,17.33
2023-04-29T08:08:38.999Z,17.72
2023-04-29T08:11:06.866Z,17.79
2023-04-29T08:13:37.293Z,17.50
2023-04-29T08:16:05.011Z,17.59
2023-04-29T08:18:32.489Z,17.45
2023-04-29T08:21:01.065Z,17.83
2023-04-29T08:23:28.626Z,18.23
2023-04-29T08:25:56.327Z,18.23
2023-04-29T08:28:23.836Z,18.33
2023-04-29T08:30:51.549Z,18.59
2023-04-29T08:33:19.064Z,18.65
2023-04-29T08:35:46.502Z,18.74
2023-04-29T08:38:14.073Z,19.02
2023-04-29T08:40:46.616Z,19.44
2023-04-29T08:43:17.874Z,19.26
2023-04-29T08:45:49.345Z,19.15
2023-04-29T08:48:18.753Z,19.04
2023-04-29T08:50:47.026Z,18.71
2023-04-29T08:53:15.891Z,18.74
2023-04-29T08:55:48.012Z,18.92
2023-04-29T08:58:17.245Z,19.37
2023-04-29T09:00:48.287Z,19.44
2023-04-29T09:03:25.007Z,19.17
2023-04-29T09:05:57.481Z,19.52
2023-04-29T09:08:25.903Z,19.56
2023-04-29T09:10:54.057Z,19.63
2023-04-29T09:13:32.883Z,19.60
2023-04-29T09:16:00.719Z,19.40
2023-04-29T09:18:48.758Z,19.59
2023-04-29T09:21:24.994Z,19.62
2023-04-29T09:23:58.663Z,19.71
2023-04-29T09:26:27.109Z,19.88
2023-04-29T09:29:14.060Z,19.79
2023-04-29T09:31:42.555Z,19.94
2023-04-29T09:34:11.959Z,19.99
2023-04-29T09:36:55.087Z,19.85
2023-04-29T09:39:24.060Z,19.50
2023-04-29T09:41:54.251Z,19.54
2023-04-29T09:44:24.690Z,19.73
2023-04-29T09:47:04.291Z,19.60
2023-04-29T09:49:40.084Z,19.99
2023-04-29T09:52:15.061Z,19.79
2023-04-29T09:54:44.532Z,19.86
2023-04-29T09:57:16.507Z,19.90
2023-04-29T09:59:44.049Z,20.12
2023-04-29T10:02:19.325Z,20.12
2023-04-29T10:04:58.986Z,20.50
2023-04-29T10:07:28.605Z,20.73
2023-04-29T10:09:57.717Z,20.61
2023-04-29T10:12:26.640Z,20.58
2023-04-29T10:15:21.466Z,20.73
2023-04-29T10:18:22.953Z,20.90
2023-04-29T10:20:52.059Z,20.73
2023-04-29T10:23:22.102Z,20.67
2023-04-29T10:25:53.759Z,21.07
2023-04-29T10:28:24.219Z,21.01
2023-04-29T10:30:52.579Z,21.26
2023-04-29T10:33:20.368Z,21.35
2023-04-29T10:35:49.949Z,21.47
2023-04-29T10:38:53.234Z,21.47
2023-04-29T10:41:25.728Z,21.68
2023-04-29T10:43:56.708Z,21.64
2023-04-29T10:46:27.024Z,21.71
2023-04-29T10:49:06.474Z,21.90
2023-04-29T10:51:43.928Z,22.32
2023-04-29T10:54:15.062Z,22.27
2023-04-29T10:56:52.675Z,22.09
2023-04-29T10:59:42.902Z,22.22
2023-04-29T11:02:12.969Z,22.15
2023-04-29T11:05:12.699Z,22.11
2023-04-29T11:07:41.069Z,22.31
2023-04-29T11:10:09.067Z,22.03
2023-04-29T11:12:36.629Z,22.49
2023-04-29T11:15:05.586Z,22.58
2023-04-29T11:17:40.649Z,22.75
2023-04-29T11:20:14.565Z,22.91
2023-04-29T11:22:43.316Z,22.59
2023-04-29T11:25:11.742Z,22.75
2023-04-29T11:27:43.030Z,22.86
2023-04-29T11:30:10.881Z,22.80
2023-04-29T11:32:40.975Z,22.66
2023-04-29T11:35:17.773Z,23.14
2023-04-29T11:37:47.533Z,22.98
2023-04-29T11:40:16.929Z,23.26
2023-04-29T11:42:49.871Z,23.27
2023-04-29T11:45:19.634Z,23.55
2023-04-29T11:47:48.942Z,23.97
2023-04-29T11:50:20.011Z,23.70
2023-04-29T11:52:49.433Z,23.66
2023-04-29T11:55:17.129Z,23.61
2023-04-29T11:57:44.709Z,23.79
2023-04-29T12:00:14.452Z,24.09
2023-04-29T12:02:46.828Z,24.39
2023-04-29T12:05:15.852Z,24.43
2023-04-29T12:07:44.241Z,24.65
2023-04-29T12:10:12.748Z,25.04
2023-04-29T12:12:43.613Z,24.69
2023-04-29T12:15:12.730Z,24.10
2023-04-29T12:17:41.193Z,24.38
2023-04-29T12:20:10.560Z,24.22
2023-04-29T12:22:38.532Z,24.20
2023-04-29T12:25:08.126Z,24.22
2023-04-29T12:27:39.501Z,24.03
2023-04-29T12:30:11.388Z,23.80
2023-04-29T12:32:39.435Z,23.97
2023-04-29T12:35:17.399Z,24.32
2023-04-29T12:37:49.824Z,24.06
2023-04-29T12:40:20.259Z,24.16
2023-04-29T12:42:48.098Z,23.78
2023-04-29T12:45:33.317Z,24.11
2023-04-29T12:48:03.168Z,24.05
2023-04-29T12:50:37.850Z,23.78
2023-04-29T12:53:08.465Z,23.53
2023-04-29T12:55:38.749Z,23.70
2023-04-29T12:58:07.539Z,23.96
2023-04-29T13:00:37.372Z,23.83
2023-04-29T13:03:05.324Z,23.89
2023-04-29T13:05:36.141Z,23.88
2023-04-29T13:08:07.086Z,24.27
2023-04-29T13:10:36.111Z,24.51
2023-04-29T13:13:04.121Z,25.14
2023-04-29T13:15:33.181Z,25.58
2023-04-29T13:18:01.459Z,25.33
2023-04-29T13:20:29.301Z,25.47
2023-04-29T13:22:56.734Z,25.47
2023-04-29T13:25:24.216Z,25.72
2023-04-29T13:27:52.633Z,26.26
2023-04-29T13:30:20.124Z,26.24
2023-04-29T13:32:55.222Z,26.10
2023-04-29T13:35:24.113Z,26.46
2023-04-29T13:37:52.443Z,26.37
2023-04-29T13:40:21.416Z,26.34
2023-04-29T13:42:53.326Z,26.28
2023-04-29T13:45:39.539Z,25.91
2023-04-29T13:48:25.908Z,25.87
2023-04-29T13:51:34.541Z,25.49
2023-04-29T13:54:37.368Z,25.61
2023-04-29T13:59:39.441Z,25.72
2023-04-29T14:04:21.827Z,25.71
2023-04-29T14:06:49.281Z,25.00
2023-04-29T14:09:18.683Z,24.57
2023-04-29T14:11:46.807Z,24.25
2023-04-29T14:14:14.467Z,24.28
2023-04-29T14:16:42.227Z,24.45
2023-04-29T14:19:09.997Z,24.63
2023-04-29T14:21:37.461Z,24.26
2023-04-29T14:24:05.027Z,24.10
2023-04-29T14:26:32.532Z,24.44
2023-04-29T14:29:00.543Z,23.88
2023-04-29T14:31:30.665Z,23.85
2023-04-29T14:33:59.161Z,23.30
2023-04-29T14:36:29.211Z,23.12
2023-04-29T14:38:56.849Z,22.90
2023-04-29T14:41:24.488Z,22.93
2023-04-29T14:43:51.942Z,23.14
2023-04-29T14:46:19.750Z,22.83
2023-04-29T14:48:47.164Z,22.76
2023-04-29T14:51:14.759Z,22.67
2023-04-29T14:53:43.059Z,22.43
2023-04-29T14:56:10.575Z,22.83
2023-04-29T14:58:38.910Z,22.58
2023-04-29T15:01:06.563Z,22.52
2023-04-29T15:03:34.106Z,22.43
2023-04-29T15:06:05.162Z,22.59
2023-04-29T15:08:32.729Z,22.75
2023-04-29T15:11:00.306Z,22.73
2023-04-29T15:13:28.819Z,22.57
2023-04-29T15:15:57.609Z,22.55
2023-04-29T15:18:27.946Z,22.60
2023-04-29T15:20:55.436Z,22.45
2023-04-29T15:23:22.833Z,22.38
2023-04-29T15:25:50.312Z,22.14
2023-04-29T15:28:17.736Z,22.13
2023-04-29T15:30:45.339Z,22.11
2023-04-29T15:33:12.784Z,21.91
2023-04-29T15:35:40.478Z,21.81
2023-04-29T15:38:08.186Z,21.77
2023-04-29T15:40:35.752Z,21.71
2023-04-29T15:43:03.265Z,21.70
2023-04-29T15:45:50.790Z,21.60
2023-04-29T15:48:18.462Z,21.54
2023-04-29T15:50:46.276Z,21.50
2023-04-29T15:53:13.943Z,21.47
2023-04-29T15:55:42.324Z,21.46
2023-04-29T15:58:09.878Z,21.57
2023-04-29T16:00:38.832Z,21.45
2023-04-29T16:03:06.388Z,21.40
2023-04-29T16:05:34.572Z,21.30
2023-04-29T16:08:03.660Z,21.23
2023-04-29T16:10:32.612Z,21.31
2023-04-29T16:13:01.373Z,21.33
2023-04-29T16:15:29.492Z,21.25
2023-04-29T16:17:57.013Z,21.13
2023-04-29T16:20:25.865Z,21.08
2023-04-29T16:22:54.566Z,21.05
2023-04-29T16:25:22.018Z,21.09
2023-04-29T16:27:49.530Z,21.11
2023-04-29T16:30:17.008Z,21.02
2023-04-29T16:32:44.642Z,21.00
2023-04-29T16:35:13.296Z,20.94
2023-04-29T16:37:40.846Z,20.85
2023-04-29T16:40:09.300Z,20.84
2023-04-29T16:42:37.848Z,20.77
2023-04-29T16:45:07.296Z,20.70
2023-04-29T16:47:35.578Z,20.59
2023-04-29T16:50:06.978Z,20.51
2023-04-29T16:52:36.677Z,20.41
2023-04-29T16:55:04.574Z,20.35
2023-04-29T16:57:33.890Z,20.27
2023-04-29T17:00:06.670Z,20.20
2023-04-29T17:02:35.424Z,20.20
2023-04-29T17:05:06.482Z,20.27
2023-04-29T17:07:36.244Z,20.31
2023-04-29T17:10:06.560Z,20.37
2023-04-29T17:12:34.213Z,20.30
2023-04-29T17:15:02.451Z,20.13
2023-04-29T17:17:30.609Z,20.12
2023-04-29T17:20:02.612Z,20.11
2023-04-29T17:22:32.779Z,20.10
2023-04-29T17:25:03.940Z,20.15
2023-04-29T17:27:31.713Z,20.14
2023-04-29T17:30:00.240Z,20.06
2023-04-29T17:32:30.727Z,19.95
2023-04-29T17:35:01.291Z,19.91
2023-04-29T17:37:31.420Z,19.90
2023-04-29T17:39:59.404Z,19.86
2023-04-29T17:42:27.237Z,19.83
2023-04-29T17:44:57.270Z,19.69
2023-04-29T17:47:26.940Z,19.58
2023-04-29T17:49:56.321Z,19.53
2023-04-29T17:52:26.287Z,19.44
2023-04-29T17:54:55.191Z,19.44
2023-04-29T17:57:24.535Z,19.46
2023-04-29T17:59:57.739Z,19.44
2023-04-29T18:02:26.743Z,19.30
2023-04-29T18:04:55.228Z,19.20
2023-04-29T18:07:26.016Z,19.22
2023-04-29T18:09:58.658Z,19.18
2023-04-29T18:12:28.618Z,19.19
2023-04-29T18:14:57.348Z,19.19
2023-04-29T18:17:27.180Z,19.18
2023-04-29T18:19:55.453Z,19.11
2023-04-29T18:22:24.862Z,19.07
2023-04-29T18:24:57.127Z,18.98
2023-04-29T18:27:29.829Z,18.91
2023-04-29T18:29:58.013Z,18.78
2023-04-29T18:32:25.464Z,18.76
2023-04-29T18:34:53.907Z,18.69
2023-04-29T18:37:21.438Z,18.68
2023-04-29T18:39:48.955Z,18.62
2023-04-29T18:42:16.533Z,18.54
2023-04-29T18:44:45.712Z,18.58
2023-04-29T18:47:15.754Z,18.55
2023-04-29T18:49:44.051Z,18.54
2023-04-29T18:52:11.560Z,18.49
2023-04-29T18:54:41.006Z,18.36
2023-04-29T18:57:08.895Z,18.57
2023-04-29T18:59:39.958Z,18.46
2023-04-29T19:02:08.641Z,18.41
2023-04-29T19:04:36.323Z,18.31
2023-04-29T19:07:08.129Z,18.34
2023-04-29T19:09:36.533Z,18.28
2023-04-29T19:12:05.865Z,18.23
2023-04-29T19:14:38.553Z,18.26
2023-04-29T19:17:09.553Z,18.17
2023-04-29T19:19:38.159Z,18.08
2023-04-29T19:22:05.700Z,18.12
2023-04-29T19:24:35.263Z,18.08
2023-04-29T19:27:04.133Z,17.99
2023-04-29T19:29:31.558Z,17.88
2023-04-29T19:31:59.250Z,17.92
2023-04-29T19:34:26.888Z,17.93
2023-04-29T19:36:56.385Z,17.92
2023-04-29T19:39:23.979Z,17.93
2023-04-29T19:41:53.295Z,17.91
2023-04-29T19:44:21.094Z,17.98
2023-04-29T19:46:54.344Z,17.86
2023-04-29T19:49:23.735Z,17.83
2023-04-29T19:51:52.031Z,17.76
2023-04-29T19:54:22.591Z,17.77
2023-04-29T19:56:50.089Z,17.87
2023-04-29T19:59:17.639Z,18.37
2023-04-29T20:01:45.304Z,18.23
2023-04-29T20:04:13.000Z,17.95
2023-04-29T20:06:41.364Z,17.97
2023-04-29T20:09:09.488Z,17.82
2023-04-29T20:11:37.169Z,17.64
2023-04-29T20:14:04.650Z,17.48
2023-04-29T20:16:32.232Z,17.48
2023-04-29T20:18:59.679Z,17.42
2023-04-29T20:21:27.676Z,17.41
2023-04-29T20:23:57.994Z,17.58
2023-04-29T20:26:27.308Z,17.54
2023-04-29T20:28:57.119Z,17.68
2023-04-29T20:31:27.242Z,17.73
2023-04-29T20:33:54.828Z,17.82
2023-04-29T20:36:23.372Z,17.80
2023-04-29T20:38:50.993Z,17.70
2023-04-29T20:41:18.428Z,17.67
2023-04-29T20:43:45.904Z,17.42
2023-04-29T20:46:14.067Z,17.33
2023-04-29T20:48:42.276Z,17.30
2023-04-29T20:51:11.482Z,17.33
2023-04-29T20:53:39.661Z,17.28
2023-04-29T20:56:09.050Z,17.18
2023-04-29T20:58:36.544Z,17.18
2023-04-29T21:01:04.026Z,17.25
2023-04-29T21:03:31.553Z,17.29
2023-04-29T21:05:59.592Z,17.31
2023-04-29T21:08:27.598Z,17.33
2023-04-29T21:10:55.138Z,17.32
2023-04-29T21:13:22.648Z,17.34
2023-04-29T21:15:50.164Z,17.31
2023-04-29T21:18:17.787Z,17.31
2023-04-29T21:20:45.781Z,17.92
2023-04-29T21:23:13.324Z,17.57
2023-04-29T21:25:40.936Z,17.25
2023-04-29T21:28:08.426Z,17.01
2023-04-29T21:30:36.075Z,16.99
2023-04-29T21:33:03.756Z,17.05
2023-04-29T21:35:32.990Z,17.19
2023-04-29T21:38:00.532Z,17.12
2023-04-29T21:40:28.204Z,17.09
2023-04-29T21:42:56.844Z,16.87
2023-04-29T21:45:25.379Z,16.68
2023-04-29T21:47:55.543Z,16.68
2023-04-29T21:50:23.187Z,16.62
2023-04-29T21:52:50.819Z,16.55
2023-04-29T21:55:18.792Z,16.52
2023-04-29T21:57:46.429Z,16.48
2023-04-29T22:00:28.678Z,16.47
2023-04-29T22:03:03.346Z,16.54
2023-04-29T22:05:31.861Z,16.47
2023-04-29T22:08:03.013Z,16.47
2023-04-29T22:10:31.236Z,16.51
2023-04-29T22:13:01.335Z,16.36
2023-04-29T22:15:29.615Z,16.37
2023-04-29T22:17:58.158Z,16.31
2023-04-29T22:20:26.132Z,16.30
2023-04-29T22:22:54.099Z,16.38
2023-04-29T22:25:22.047Z,16.40
2023-04-29T22:27:50.369Z,16.39
2023-04-29T22:30:18.186Z,16.33
2023-04-29T22:32:45.825Z,16.20
2023-04-29T22:35:13.299Z,16.27
2023-04-29T22:37:41.093Z,16.32
2023-04-29T22:40:09.736Z,16.31
2023-04-29T22:42:37.190Z,16.34
2023-04-29T22:45:05.793Z,16.34
2023-04-29T22:47:33.262Z,16.22
2023-04-29T22:50:01.875Z,16.16
2023-04-29T22:52:29.331Z,16.03
2023-04-29T22:54:56.798Z,16.12
2023-04-29T22:57:25.437Z,16.26
2023-04-29T22:59:57.450Z,16.27
2023-04-29T23:02:29.106Z,16.27
2023-04-29T23:04:58.363Z,16.16
2023-04-29T23:07:26.751Z,16.19
2023-04-29T23:09:54.523Z,16.20
2023-04-29T23:12:22.589Z,16.14
2023-04-29T23:14:51.027Z,16.11
2023-04-29T23:17:18.476Z,16.16
2023-04-29T23:19:46.075Z,16.31
2023-04-29T23:22:13.583Z,16.36
2023-04-29T23:24:41.064Z,16.38
2023-04-29T23:27:08.497Z,16.30
2023-04-29T23:29:36.217Z,16.22
2023-04-29T23:32:03.845Z,16.20
2023-04-29T23:34:31.270Z,16.14
2023-04-29T23:37:01.315Z,16.16
2023-04-29T23:39:28.942Z,16.18
2023-04-29T23:41:56.847Z,16.10
2023-04-29T23:44:25.194Z,16.11
2023-04-29T23:46:55.661Z,16.06
2023-04-29T23:49:23.122Z,16.00
2023-04-29T23:51:50.751Z,16.00
2023-04-29T23:54:19.443Z,16.02
2023-04-29T23:56:46.917Z,15.95
2023-04-29T23:59:14.358Z,15.80
